This is the latest recevied weather packets stored in our database for station/object K9JWM. If no packets are shown the sender has not sent any weather packets the latest 10 day(s).
| Time | Temp. | Humidity | Pressure | Rain* | Wind** | Luminosity | Snow |
|---|---|---|---|---|---|---|---|
| 1778208429 | 3.89° C | 64% | 1009.7 hPa | 0 mm | - | - | - |
| 1778207530 | 4.44° C | 61% | 1009.6 hPa | 0 mm | - | - | - |
| 1778206630 | 5° C | 60% | 1009.7 hPa | 0 mm | - | - | - |
| 1778205731 | 6.11° C | 58% | 1009.4 hPa | 0 mm | - | - | - |
| 1778204830 | 6.67° C | 54% | 1009.2 hPa | 0 mm | - | - | - |
| 1778203929 | 7.78° C | 53% | 1009.2 hPa | 0 mm | - | - | - |
| 1778203030 | 8.33° C | 53% | 1009.2 hPa | 0 mm | - | - | - |
| 1778202129 | 8.33° C | 52% | 1009.2 hPa | 0 mm | - | - | - |
| 1778201231 | 8.33° C | 50% | 1009.2 hPa | 0 mm | - | - | - |
| 1778200330 | 8.89° C | 52% | 1009 hPa | 0 mm | - | - | - |
| 1778199429 | 8.33° C | 54% | 1009.2 hPa | 0 mm | - | - | - |
| 1778198531 | 8.33° C | 53% | 1009.2 hPa | 0 mm | - | - | - |
| 1778197630 | 8.89° C | 52% | 1009.2 hPa | 0 mm | - | - | - |
| 1778196730 | 8.33° C | 50% | 1009.6 hPa | 0 mm | - | - | - |
| 1778195831 | 9.44° C | 43% | 1009.1 hPa | 0 mm | - | - | - |
| 1778194930 | 9.44° C | 43% | 1009 hPa | 0 mm | - | - | - |
| 1778194031 | 9.44° C | 43% | 1009.2 hPa | 0 mm | - | - | - |
| 1778193129 | 8.89° C | 43% | 1009.3 hPa | 0 mm | - | - | - |
| 1778192230 | 8.89° C | 41% | 1009.2 hPa | 0 mm | - | - | - |
| 1778191330 | 9.44° C | 40% | 1009.2 hPa | 0 mm | - | - | - |
| 1778190429 | 8.89° C | 44% | 1009.2 hPa | 0 mm | - | - | - |
| 1778189530 | 8.89° C | 39% | 1009.3 hPa | 0 mm | - | - | - |
| 1778188631 | 8.89° C | 39% | 1009.2 hPa | 0 mm | - | - | - |
| 1778187729 | 8.89° C | 39% | 1009.3 hPa | 0 mm | - | - | - |
| 1778186830 | 8.89° C | 38% | 1009.3 hPa | 0 mm | - | - | - |
* Rain latest hour (hover to see other rain measurements)
** Current wind speed in m/s (hover to see current wind gust speed)